X  CloseMetar Aviation Weather Data     KMSY Louis Armstrong New Orleans International

Temperature

64°F Temperature

46°F Dewpoint

52% Humidity



Wind

 3 MPH

 5 KM/H

 1 M/S

 3 KTS



20°
North North
East
Current Conditions

Partly Cloudy Partly Cloudy
Pressure 1021.32 (hPa) - 30.16 (in)
Visibility 10 (mi) - 16.1 (km)
Airport
Airport-code KMSY

Location Louis Armstrong New Orleans International 5 (mi)

Metar:
KMSY 230453Z 02003KT 10SM FEW250 18/08 A3016 RMK AO2 SLP216 T01780078

Time: 10-22-2019 23:53